Time;durP1;ratioP1;P1;durP2;ratioP2;P2;SDS_P1;SDS_P2;PMS_P1;PMS_P2;Temp;Humidity;BMP_temperature;BMP_pressure;BME280_temperature;BME280_humidity;BME280_pressure;Samples;Min_cycle;Max_cycle;Signal;HPM_P1;HPM_P2
2023/03/04 00:00:31;;;;;;;;;;;5.40;99.90;;;;;;5044952;28;20255;-61
2023/03/04 00:02:56;;;;;;;;;;;5.50;99.90;;;;;;5044008;28;19920;-61
2023/03/04 00:05:22;;;;;;;;;;;5.50;99.90;;;;;;5042337;28;19913;-61
2023/03/04 00:07:47;;;;;;;;;;;5.50;99.90;;;;;;5039609;28;20383;-62
2023/03/04 00:10:13;;;;;;;;;;;5.50;99.90;;;;;;5048533;28;19973;-63
2023/03/04 00:12:38;;;;;;;;;;;5.50;99.90;;;;;;5043637;28;19917;-63
2023/03/04 00:15:04;;;;;;;;;;;5.40;99.90;;;;;;5048504;28;20367;-60
2023/03/04 00:17:30;;;;;;;;;;;5.40;99.90;;;;;;5046718;28;20244;-63
2023/03/04 00:19:56;;;;;;;;;;;5.40;99.90;;;;;;5041438;28;20007;-62
2023/03/04 00:22:22;;;;;;;;;;;5.40;99.90;;;;;;5048594;28;19913;-61
2023/03/04 00:24:47;;;;;;;;;;;5.40;99.90;;;;;;5044560;28;19942;-61
2023/03/04 00:27:13;;;;;;;;;;;5.40;99.90;;;;;;5049814;28;19923;-62
2023/03/04 00:29:38;;;;;;;;;;;5.40;99.90;;;;;;5045778;28;19917;-62
2023/03/04 00:32:04;;;;;;;;;;;5.40;99.90;;;;;;5044519;28;19913;-61
2023/03/04 00:34:29;;;;;;;;;;;5.40;99.90;;;;;;5054892;28;20390;-61
2023/03/04 00:37:00;;;;;;;;;;;5.40;99.90;;;;;;5048702;28;20367;-61
2023/03/04 00:39:26;;;;;;;;;;;5.40;99.90;;;;;;5052312;28;19920;-61
2023/03/04 00:41:51;;;;;;;;;;;5.40;99.90;;;;;;5047188;28;20375;-60
2023/03/04 00:44:17;;;;;;;;;;;5.40;99.90;;;;;;5050447;28;19917;-61
2023/03/04 00:46:43;;;;;;;;;;;5.40;99.90;;;;;;5056219;28;19924;-62
2023/03/04 00:49:08;;;;;;;;;;;5.40;99.90;;;;;;5050620;28;19917;-61
2023/03/04 00:51:34;;;;;;;;;;;5.40;99.90;;;;;;5052404;28;20395;-61
2023/03/04 00:53:59;;;;;;;;;;;5.40;99.90;;;;;;5048596;28;19941;-61
2023/03/04 00:56:25;;;;;;;;;;;5.40;99.90;;;;;;5051898;28;20375;-61
2023/03/04 00:58:50;;;;;;;;;;;5.40;99.90;;;;;;5048284;28;19921;-60
2023/03/04 01:01:16;;;;;;;;;;;5.40;99.90;;;;;;5050027;28;20348;-61
2023/03/04 01:03:41;;;;;;;;;;;5.40;99.90;;;;;;5052147;28;19913;-62
2023/03/04 01:06:07;;;;;;;;;;;5.40;99.90;;;;;;5046025;28;19959;-61
2023/03/04 01:08:33;;;;;;;;;;;5.40;99.90;;;;;;5050668;28;20387;-61
2023/03/04 01:10:58;;;;;;;;;;;5.40;99.90;;;;;;5050114;28;20007;-61
2023/03/04 01:13:24;;;;;;;;;;;5.40;99.90;;;;;;5051075;28;20379;-61
2023/03/04 01:15:50;;;;;;;;;;;5.50;99.90;;;;;;5047819;28;19919;-61
2023/03/04 01:18:15;;;;;;;;;;;5.40;99.90;;;;;;5051698;28;19944;-61
2023/03/04 01:20:40;;;;;;;;;;;5.50;99.90;;;;;;5052063;28;20360;-60
2023/03/04 01:23:06;;;;;;;;;;;5.50;99.90;;;;;;5042318;28;19917;-61
2023/03/04 01:25:31;;;;;;;;;;;5.50;99.90;;;;;;5051675;28;20102;-61
2023/03/04 01:27:57;;;;;;;;;;;5.50;99.90;;;;;;5049593;28;20466;-61
2023/03/04 01:30:22;;;;;;;;;;;5.40;99.90;;;;;;5051491;28;19913;-60
2023/03/04 01:32:48;;;;;;;;;;;5.40;99.90;;;;;;5043485;28;20034;-61
2023/03/04 01:35:14;;;;;;;;;;;5.40;99.90;;;;;;5051340;28;19917;-61
2023/03/04 01:37:39;;;;;;;;;;;5.40;99.90;;;;;;5058774;28;19913;-61
2023/03/04 01:40:05;;;;;;;;;;;5.40;99.90;;;;;;5047428;28;19913;-62
2023/03/04 01:42:33;;;;;;;;;;;5.50;99.90;;;;;;5049136;28;19913;-61
2023/03/04 01:44:59;;;;;;;;;;;5.40;99.90;;;;;;5049372;28;19912;-61
2023/03/04 01:47:26;;;;;;;;;;;5.50;99.90;;;;;;5050455;28;20275;-61
2023/03/04 01:49:53;;;;;;;;;;;5.40;99.90;;;;;;5044569;28;19913;-61
2023/03/04 01:52:19;;;;;;;;;;;5.50;99.90;;;;;;5047433;28;19939;-61
2023/03/04 01:54:44;;;;;;;;;;;5.40;99.90;;;;;;5051368;28;19958;-61
2023/03/04 01:57:21;;;;;;;;;;;5.40;99.90;;;;;;5049393;28;19958;-61
2023/03/04 02:00:06;;;;;;;;;;;5.40;99.90;;;;;;5049054;28;19950;-62
2023/03/04 02:02:32;;;;;;;;;;;5.40;99.90;;;;;;5049917;28;20409;-61
2023/03/04 02:04:58;;;;;;;;;;;5.40;99.90;;;;;;5049297;28;19913;-61
2023/03/04 02:07:23;;;;;;;;;;;5.40;99.90;;;;;;5045883;28;20377;-61
2023/03/04 02:09:49;;;;;;;;;;;5.40;99.90;;;;;;5050641;28;19922;-60
2023/03/04 02:12:14;;;;;;;;;;;5.30;99.90;;;;;;5046403;28;20011;-61
2023/03/04 02:14:39;;;;;;;;;;;5.40;99.90;;;;;;5050536;28;20004;-61
2023/03/04 02:17:09;;;;;;;;;;;5.40;99.90;;;;;;5048342;28;19927;-60
2023/03/04 02:19:40;;;;;;;;;;;5.40;99.90;;;;;;5043410;28;20287;-61
2023/03/04 02:22:06;;;;;;;;;;;5.40;99.90;;;;;;5056094;28;20372;-61
2023/03/04 02:24:39;;;;;;;;;;;5.40;99.90;;;;;;5043410;28;20451;-61
2023/03/04 02:27:05;;;;;;;;;;;5.40;99.90;;;;;;5047757;28;19974;-61
2023/03/04 02:29:30;;;;;;;;;;;5.30;99.90;;;;;;5050719;28;19969;-61
2023/03/04 02:31:56;;;;;;;;;;;5.30;99.90;;;;;;5044746;28;20383;-61
2023/03/04 02:34:23;;;;;;;;;;;5.30;99.90;;;;;;5050481;28;19913;-61
2023/03/04 02:36:50;;;;;;;;;;;5.30;99.90;;;;;;5050093;28;19913;-61
2023/03/04 02:39:18;;;;;;;;;;;5.30;99.90;;;;;;5050173;28;19991;-61
2023/03/04 02:41:44;;;;;;;;;;;5.30;99.90;;;;;;5042574;28;20013;-61
2023/03/04 02:44:30;;;;;;;;;;;5.30;99.90;;;;;;5048309;28;19990;-60
2023/03/04 02:46:55;;;;;;;;;;;5.20;99.90;;;;;;5047817;28;19913;-60
2023/03/04 02:49:22;;;;;;;;;;;5.30;99.90;;;;;;5046656;28;19924;-60
2023/03/04 02:52:01;;;;;;;;;;;5.30;99.90;;;;;;5044928;28;19999;-60
2023/03/04 02:54:26;;;;;;;;;;;5.30;99.90;;;;;;5047881;28;19913;-60
2023/03/04 02:56:53;;;;;;;;;;;5.30;99.90;;;;;;5050358;28;19936;-60
2023/03/04 02:59:20;;;;;;;;;;;5.30;99.90;;;;;;5045097;28;19921;-61
2023/03/04 03:01:45;;;;;;;;;;;5.30;99.90;;;;;;5049651;28;19912;-60
2023/03/04 03:04:11;;;;;;;;;;;5.30;99.90;;;;;;5048034;28;20003;-61
2023/03/04 03:06:37;;;;;;;;;;;5.20;99.90;;;;;;5050238;28;20356;-61
2023/03/04 03:09:03;;;;;;;;;;;5.20;99.90;;;;;;5040894;28;19919;-62
2023/03/04 03:11:29;;;;;;;;;;;5.20;99.90;;;;;;5045733;28;19912;-61
2023/03/04 03:13:54;;;;;;;;;;;5.20;99.90;;;;;;5047912;28;20370;-61
2023/03/04 03:16:20;;;;;;;;;;;5.20;99.90;;;;;;5044810;28;19913;-61
2023/03/04 03:18:45;;;;;;;;;;;5.20;99.90;;;;;;5052107;28;19921;-60
2023/03/04 03:21:11;;;;;;;;;;;5.20;99.90;;;;;;5047080;28;19912;-61
2023/03/04 03:23:36;;;;;;;;;;;5.20;99.90;;;;;;5053758;28;19920;-61
2023/03/04 03:26:02;;;;;;;;;;;5.20;99.90;;;;;;5059375;28;20364;-61
2023/03/04 03:28:27;;;;;;;;;;;5.20;99.90;;;;;;5051232;28;19939;-61
2023/03/04 03:30:53;;;;;;;;;;;5.30;99.90;;;;;;5046531;28;19917;-60
2023/03/04 03:33:19;;;;;;;;;;;5.20;99.90;;;;;;5052575;28;19913;-62
2023/03/04 03:35:44;;;;;;;;;;;5.20;99.90;;;;;;5047963;28;19979;-60
2023/03/04 03:38:10;;;;;;;;;;;5.20;99.90;;;;;;5056651;28;19922;-61
2023/03/04 03:40:35;;;;;;;;;;;5.20;99.90;;;;;;5048724;28;19921;-61
2023/03/04 03:43:01;;;;;;;;;;;5.20;99.90;;;;;;5051739;28;20023;-61
2023/03/04 03:45:26;;;;;;;;;;;5.20;99.90;;;;;;5052620;28;19966;-61
2023/03/04 03:47:52;;;;;;;;;;;5.20;99.90;;;;;;5051698;28;19920;-61
2023/03/04 03:50:17;;;;;;;;;;;5.20;99.90;;;;;;5050974;28;19999;-61
2023/03/04 03:52:43;;;;;;;;;;;5.20;99.90;;;;;;5053414;28;19959;-61
2023/03/04 03:55:08;;;;;;;;;;;5.20;99.90;;;;;;5056015;28;21385;-61
2023/03/04 03:57:34;;;;;;;;;;;5.10;99.90;;;;;;5051264;28;19956;-61
2023/03/04 03:59:59;;;;;;;;;;;5.20;99.90;;;;;;5044341;28;19922;-61
2023/03/04 04:02:25;;;;;;;;;;;5.20;99.90;;;;;;5051902;28;19935;-61
2023/03/04 04:04:50;;;;;;;;;;;5.20;99.90;;;;;;5051334;28;19920;-61
2023/03/04 04:07:16;;;;;;;;;;;5.20;99.90;;;;;;5047898;28;19919;-61
2023/03/04 04:09:42;;;;;;;;;;;5.20;99.90;;;;;;5050640;28;19913;-61
2023/03/04 04:12:07;;;;;;;;;;;5.20;99.90;;;;;;5050414;28;19913;-60
2023/03/04 04:14:33;;;;;;;;;;;5.20;99.90;;;;;;5052914;28;19920;-61
2023/03/04 04:16:59;;;;;;;;;;;5.20;99.90;;;;;;5051391;28;19913;-60
2023/03/04 04:19:24;;;;;;;;;;;5.20;99.90;;;;;;5052603;28;19928;-60
2023/03/04 04:21:50;;;;;;;;;;;5.20;99.90;;;;;;5048837;28;19943;-61
2023/03/04 04:24:15;;;;;;;;;;;5.10;99.90;;;;;;5050971;28;20375;-61
2023/03/04 04:26:41;;;;;;;;;;;5.10;99.90;;;;;;5049486;28;19916;-60
2023/03/04 04:29:06;;;;;;;;;;;5.10;99.90;;;;;;5051276;28;19919;-60
2023/03/04 04:31:32;;;;;;;;;;;5.10;99.90;;;;;;5043974;28;19913;-60
2023/03/04 04:33:58;;;;;;;;;;;5.10;99.90;;;;;;5045227;28;19913;-62
2023/03/04 04:36:23;;;;;;;;;;;5.10;99.90;;;;;;5052201;28;19923;-61
2023/03/04 04:38:49;;;;;;;;;;;5.20;99.90;;;;;;5051257;28;20279;-62
2023/03/04 04:41:22;;;;;;;;;;;5.10;99.90;;;;;;5045853;28;19966;-62
2023/03/04 04:43:47;;;;;;;;;;;5.10;99.90;;;;;;5049285;28;19966;-62
2023/03/04 04:46:14;;;;;;;;;;;5.10;99.90;;;;;;5047730;28;19912;-61
2023/03/04 04:48:39;;;;;;;;;;;5.10;99.90;;;;;;5052336;28;19963;-61
2023/03/04 04:51:05;;;;;;;;;;;5.10;99.90;;;;;;5046283;28;19913;-62
2023/03/04 04:53:31;;;;;;;;;;;5.20;99.90;;;;;;5048206;28;20045;-60
2023/03/04 04:55:56;;;;;;;;;;;5.10;99.90;;;;;;5047487;28;19913;-59
2023/03/04 04:58:22;;;;;;;;;;;5.10;99.90;;;;;;5045505;28;19920;-62
2023/03/04 05:00:47;;;;;;;;;;;5.10;99.90;;;;;;5046796;28;19920;-60
2023/03/04 05:03:13;;;;;;;;;;;5.20;99.90;;;;;;5050728;28;19935;-60
2023/03/04 05:05:38;;;;;;;;;;;5.10;99.90;;;;;;5052061;28;20398;-61
2023/03/04 05:08:04;;;;;;;;;;;5.10;99.90;;;;;;5050549;28;20275;-61
2023/03/04 05:10:29;;;;;;;;;;;5.10;99.90;;;;;;5048070;28;19958;-60
2023/03/04 05:12:55;;;;;;;;;;;5.10;99.90;;;;;;5049995;28;20386;-61
2023/03/04 05:15:20;;;;;;;;;;;5.10;99.90;;;;;;5047119;28;19919;-60
2023/03/04 05:17:46;;;;;;;;;;;5.10;99.90;;;;;;5052003;28;19917;-61
2023/03/04 05:20:12;;;;;;;;;;;5.10;99.90;;;;;;5049806;28;19928;-61
2023/03/04 05:22:37;;;;;;;;;;;5.10;99.90;;;;;;5051943;28;19916;-62
2023/03/04 05:25:03;;;;;;;;;;;5.10;99.90;;;;;;5049822;28;19913;-62
2023/03/04 05:27:28;;;;;;;;;;;5.10;99.90;;;;;;5050240;28;19963;-62
2023/03/04 05:29:58;;;;;;;;;;;5.10;99.90;;;;;;5046279;28;19917;-62
2023/03/04 05:32:24;;;;;;;;;;;5.10;99.90;;;;;;5047600;28;20011;-61
2023/03/04 05:34:49;;;;;;;;;;;5.10;99.90;;;;;;5051897;28;20003;-62
2023/03/04 05:37:15;;;;;;;;;;;5.20;99.90;;;;;;5050307;28;19917;-62
2023/03/04 05:39:40;;;;;;;;;;;5.10;99.90;;;;;;5045707;28;19963;-62
2023/03/04 05:42:06;;;;;;;;;;;5.10;99.90;;;;;;5045866;28;19917;-62
2023/03/04 05:44:31;;;;;;;;;;;5.10;99.90;;;;;;5051452;28;19913;-60
2023/03/04 05:46:57;;;;;;;;;;;5.10;99.90;;;;;;5049513;28;20376;-61
2023/03/04 05:49:22;;;;;;;;;;;5.10;99.90;;;;;;5049232;28;19925;-61
2023/03/04 05:51:48;;;;;;;;;;;5.10;99.90;;;;;;5051140;28;19913;-61
2023/03/04 05:54:13;;;;;;;;;;;5.00;99.90;;;;;;5048727;28;20256;-61
2023/03/04 05:56:39;;;;;;;;;;;5.10;99.90;;;;;;5050881;28;19924;-61
2023/03/04 05:59:04;;;;;;;;;;;5.10;99.90;;;;;;5048779;28;19921;-62
2023/03/04 06:01:30;;;;;;;;;;;5.00;99.90;;;;;;5041853;28;19920;-61
2023/03/04 06:03:55;;;;;;;;;;;5.00;99.90;;;;;;5048272;28;20425;-61
2023/03/04 06:06:21;;;;;;;;;;;5.10;99.90;;;;;;5042489;28;19913;-61
2023/03/04 06:08:47;;;;;;;;;;;5.10;99.90;;;;;;5046645;28;19959;-60
2023/03/04 06:11:12;;;;;;;;;;;5.00;99.90;;;;;;5038488;28;19913;-61
2023/03/04 06:13:38;;;;;;;;;;;5.10;99.90;;;;;;5047605;28;19920;-61
2023/03/04 06:16:03;;;;;;;;;;;5.10;99.90;;;;;;5048953;28;19960;-61
2023/03/04 06:18:29;;;;;;;;;;;5.10;99.90;;;;;;5044025;28;19975;-62
2023/03/04 06:20:56;;;;;;;;;;;5.10;99.90;;;;;;5046220;28;19919;-61
2023/03/04 06:23:21;;;;;;;;;;;5.10;99.90;;;;;;5047805;28;19919;-61
2023/03/04 06:25:50;;;;;;;;;;;5.10;99.90;;;;;;5046599;28;19913;-61
2023/03/04 06:28:16;;;;;;;;;;;5.10;99.90;;;;;;5050176;28;19921;-61
2023/03/04 06:30:41;;;;;;;;;;;5.10;99.90;;;;;;5050480;28;20418;-61
2023/03/04 06:33:07;;;;;;;;;;;5.10;99.90;;;;;;5048645;28;19920;-62
2023/03/04 06:35:32;;;;;;;;;;;5.10;99.90;;;;;;5049841;28;19909;-62
2023/03/04 06:37:58;;;;;;;;;;;5.10;99.90;;;;;;5048327;28;19917;-62
2023/03/04 06:40:23;;;;;;;;;;;5.10;99.90;;;;;;5048950;28;19913;-59
2023/03/04 06:42:49;;;;;;;;;;;5.10;99.90;;;;;;5050890;28;20306;-61
2023/03/04 06:45:14;;;;;;;;;;;5.10;99.90;;;;;;5048467;28;19916;-61
2023/03/04 06:47:40;;;;;;;;;;;5.10;99.90;;;;;;5050336;28;19921;-61
2023/03/04 06:50:05;;;;;;;;;;;5.10;99.90;;;;;;5048497;28;19913;-62
2023/03/04 06:52:31;;;;;;;;;;;5.10;99.90;;;;;;5048269;28;19912;-62
2023/03/04 06:54:56;;;;;;;;;;;5.10;99.90;;;;;;5046388;28;20343;-61
2023/03/04 06:57:22;;;;;;;;;;;5.20;99.90;;;;;;5059572;28;19920;-62
2023/03/04 06:59:47;;;;;;;;;;;5.20;99.90;;;;;;5042375;28;19975;-62
2023/03/04 07:02:13;;;;;;;;;;;5.20;99.90;;;;;;5045215;28;20008;-62
2023/03/04 07:04:39;;;;;;;;;;;5.20;99.90;;;;;;5047152;28;19913;-61
2023/03/04 07:07:04;;;;;;;;;;;5.20;99.90;;;;;;5041020;28;19921;-62
2023/03/04 07:09:30;;;;;;;;;;;5.20;99.90;;;;;;5042731;28;20015;-61
2023/03/04 07:11:55;;;;;;;;;;;5.20;99.90;;;;;;5045480;28;19919;-61
2023/03/04 07:14:21;;;;;;;;;;;5.30;99.90;;;;;;5040071;28;19925;-62
2023/03/04 07:16:46;;;;;;;;;;;5.30;99.90;;;;;;5049669;28;19978;-61
2023/03/04 07:19:12;;;;;;;;;;;5.30;99.90;;;;;;5041810;28;19921;-61
2023/03/04 07:21:37;;;;;;;;;;;5.30;99.90;;;;;;5049759;28;20368;-61
2023/03/04 07:24:03;;;;;;;;;;;5.30;99.90;;;;;;5047286;28;19917;-61
2023/03/04 07:26:28;;;;;;;;;;;5.30;99.90;;;;;;5045398;28;19924;-62
2023/03/04 07:28:57;;;;;;;;;;;5.30;99.90;;;;;;5041049;28;20280;-62
2023/03/04 07:31:24;;;;;;;;;;;5.30;99.90;;;;;;5043137;28;20003;-63
2023/03/04 07:33:49;;;;;;;;;;;5.30;99.90;;;;;;5047493;28;19923;-62
2023/03/04 07:36:15;;;;;;;;;;;5.40;99.90;;;;;;5048809;28;20439;-61
2023/03/04 07:38:45;;;;;;;;;;;5.40;99.90;;;;;;5049418;28;20322;-61
2023/03/04 07:41:10;;;;;;;;;;;5.40;99.90;;;;;;5038694;28;19917;-61
2023/03/04 07:43:36;;;;;;;;;;;5.40;99.90;;;;;;5049311;28;19913;-62
2023/03/04 07:46:01;;;;;;;;;;;5.50;99.90;;;;;;5046344;28;19913;-61
2023/03/04 07:48:27;;;;;;;;;;;5.50;99.90;;;;;;5044807;28;20375;-61
2023/03/04 07:51:02;;;;;;;;;;;5.50;99.90;;;;;;5042231;28;19947;-61
2023/03/04 07:53:28;;;;;;;;;;;5.60;99.90;;;;;;5049576;28;20439;-61
2023/03/04 07:55:53;;;;;;;;;;;5.60;99.90;;;;;;5046480;28;19999;-61
2023/03/04 07:58:19;;;;;;;;;;;5.60;99.90;;;;;;5043476;28;19925;-62
2023/03/04 08:00:44;;;;;;;;;;;5.60;99.90;;;;;;5047527;28;20262;-62
2023/03/04 08:03:10;;;;;;;;;;;5.60;99.90;;;;;;5037292;28;20332;-62
2023/03/04 08:05:38;;;;;;;;;;;5.60;99.90;;;;;;5055411;28;19963;-62
2023/03/04 08:08:03;;;;;;;;;;;5.70;99.90;;;;;;5051382;28;19917;-65
2023/03/04 08:10:29;;;;;;;;;;;5.70;99.90;;;;;;5055600;28;19939;-62
2023/03/04 08:12:54;;;;;;;;;;;5.70;99.90;;;;;;5051034;28;20032;-62
2023/03/04 08:15:20;;;;;;;;;;;5.70;99.90;;;;;;5045439;28;19946;-61
2023/03/04 08:17:45;;;;;;;;;;;5.70;99.90;;;;;;5052317;28;20070;-61
2023/03/04 08:20:11;;;;;;;;;;;5.80;99.90;;;;;;5044716;28;19924;-62
2023/03/04 08:22:36;;;;;;;;;;;5.80;99.90;;;;;;5055293;28;19928;-62
2023/03/04 08:25:02;;;;;;;;;;;5.80;99.90;;;;;;5052927;28;19921;-62
2023/03/04 08:27:28;;;;;;;;;;;5.90;99.90;;;;;;5057764;28;19920;-62
2023/03/04 08:29:53;;;;;;;;;;;6.00;99.90;;;;;;5045351;28;20395;-61
2023/03/04 08:32:19;;;;;;;;;;;5.90;99.90;;;;;;5052699;28;19913;-62
2023/03/04 08:34:44;;;;;;;;;;;6.00;99.90;;;;;;5052515;28;19971;-61
2023/03/04 08:37:10;;;;;;;;;;;6.00;99.90;;;;;;5050853;28;20335;-61
2023/03/04 08:39:36;;;;;;;;;;;6.00;99.90;;;;;;5046283;28;19943;-62
2023/03/04 08:42:02;;;;;;;;;;;6.10;99.90;;;;;;5050712;28;20265;-63
2023/03/04 08:44:27;;;;;;;;;;;6.10;99.90;;;;;;5052710;28;19912;-61
2023/03/04 08:46:53;;;;;;;;;;;6.10;99.90;;;;;;5049815;28;19912;-61
2023/03/04 08:49:18;;;;;;;;;;;6.20;99.90;;;;;;5044385;28;19913;-61
2023/03/04 08:51:44;;;;;;;;;;;6.30;99.90;;;;;;5052298;28;19936;-61
2023/03/04 08:54:10;;;;;;;;;;;6.30;99.90;;;;;;5050200;28;19920;-62
2023/03/04 08:56:35;;;;;;;;;;;6.30;99.90;;;;;;5051426;28;19920;-62
2023/03/04 08:59:01;;;;;;;;;;;6.40;99.90;;;;;;5050424;28;20311;-62
2023/03/04 09:01:27;;;;;;;;;;;6.40;99.90;;;;;;5051762;28;19913;-63
2023/03/04 09:03:52;;;;;;;;;;;6.40;99.90;;;;;;5046676;28;19927;-60
2023/03/04 09:06:18;;;;;;;;;;;6.40;99.90;;;;;;5045717;28;19919;-63
2023/03/04 09:08:44;;;;;;;;;;;6.50;99.90;;;;;;5049909;28;20327;-62
2023/03/04 09:11:10;;;;;;;;;;;6.50;99.90;;;;;;5039794;28;19952;-62
2023/03/04 09:13:35;;;;;;;;;;;6.60;99.90;;;;;;5041645;28;20300;-62
2023/03/04 09:16:01;;;;;;;;;;;6.80;99.90;;;;;;5036052;28;19963;-65
2023/03/04 09:18:26;;;;;;;;;;;6.80;99.90;;;;;;5041189;28;19921;-62
2023/03/04 09:20:52;;;;;;;;;;;6.80;99.90;;;;;;5036587;28;19921;-63
2023/03/04 09:23:17;;;;;;;;;;;6.80;99.90;;;;;;5058165;28;19919;-61
2023/03/04 09:25:45;;;;;;;;;;;6.80;99.90;;;;;;5034228;28;19917;-63
2023/03/04 09:28:11;;;;;;;;;;;6.80;99.90;;;;;;5039518;28;20381;-61
2023/03/04 09:30:36;;;;;;;;;;;6.70;99.90;;;;;;5043904;28;20026;-60
2023/03/04 09:33:02;;;;;;;;;;;6.70;99.90;;;;;;5045972;28;19917;-59
2023/03/04 09:35:28;;;;;;;;;;;6.80;99.90;;;;;;5047445;28;19913;-60
2023/03/04 09:37:54;;;;;;;;;;;6.80;99.90;;;;;;5047404;28;19948;-61
2023/03/04 09:40:25;;;;;;;;;;;6.90;99.90;;;;;;5049673;28;19963;-61
2023/03/04 09:42:52;;;;;;;;;;;6.90;99.90;;;;;;5047588;28;19913;-60
2023/03/04 09:45:19;;;;;;;;;;;7.00;99.90;;;;;;5044843;28;19920;-61
2023/03/04 09:47:46;;;;;;;;;;;7.00;99.90;;;;;;5050121;28;20276;-60
2023/03/04 09:50:11;;;;;;;;;;;7.00;99.90;;;;;;5048147;28;19924;-60
2023/03/04 09:52:55;;;;;;;;;;;7.10;99.90;;;;;;5049510;28;19913;-61
2023/03/04 09:55:21;;;;;;;;;;;7.10;99.90;;;;;;5046195;28;19920;-60
2023/03/04 09:57:46;;;;;;;;;;;7.20;99.90;;;;;;5050217;28;19913;-60
2023/03/04 10:00:31;;;;;;;;;;;7.10;99.90;;;;;;5045311;28;20402;-60
2023/03/04 10:03:11;;;;;;;;;;;7.10;99.90;;;;;;5044150;28;19920;-61
2023/03/04 10:05:49;;;;;;;;;;;7.10;99.90;;;;;;5040418;28;20007;-60
2023/03/04 10:08:14;;;;;;;;;;;7.10;99.90;;;;;;5045146;28;20004;-60
2023/03/04 10:10:42;;;;;;;;;;;7.10;99.90;;;;;;5042343;28;20019;-61
2023/03/04 10:13:15;;;;;;;;;;;7.10;99.90;;;;;;5041999;28;20267;-61
2023/03/04 10:15:43;;;;;;;;;;;7.20;99.90;;;;;;5045352;28;19917;-61
2023/03/04 10:18:22;;;;;;;;;;;7.40;99.90;;;;;;5048155;28;20040;-60
2023/03/04 10:20:59;;;;;;;;;;;7.60;99.90;;;;;;5044857;28;19920;-61
2023/03/04 10:23:25;;;;;;;;;;;7.80;99.90;;;;;;5049656;28;20005;-61
2023/03/04 10:25:52;;;;;;;;;;;8.10;99.90;;;;;;5044891;28;19913;-60
2023/03/04 10:28:26;;;;;;;;;;;8.20;99.90;;;;;;5048434;28;19960;-61
2023/03/04 10:30:54;;;;;;;;;;;8.20;99.90;;;;;;5042547;28;19916;-61
2023/03/04 10:33:21;;;;;;;;;;;8.10;99.90;;;;;;5043166;28;19999;-61
2023/03/04 10:35:49;;;;;;;;;;;8.10;99.90;;;;;;5041118;28;20349;-62
2023/03/04 10:38:15;;;;;;;;;;;7.80;99.90;;;;;;5044738;28;19974;-60
2023/03/04 10:40:41;;;;;;;;;;;7.80;99.90;;;;;;5037447;28;20288;-60
2023/03/04 10:43:26;;;;;;;;;;;7.80;99.90;;;;;;5042424;28;19917;-60
2023/03/04 10:45:54;;;;;;;;;;;8.00;99.90;;;;;;5041027;28;20012;-61
2023/03/04 10:48:22;;;;;;;;;;;8.30;99.90;;;;;;5034729;28;19981;-60
2023/03/04 10:50:48;;;;;;;;;;;8.50;99.90;;;;;;5039175;28;20003;-60
2023/03/04 10:53:35;;;;;;;;;;;8.70;99.90;;;;;;5042336;28;20071;-60
2023/03/04 10:56:01;;;;;;;;;;;8.80;99.90;;;;;;5030812;28;19920;-61
2023/03/04 10:58:27;;;;;;;;;;;8.80;99.90;;;;;;5044880;28;19921;-61
2023/03/04 11:01:04;;;;;;;;;;;8.70;99.90;;;;;;5038132;28;19921;-61
2023/03/04 11:03:31;;;;;;;;;;;8.40;99.90;;;;;;5041031;28;19929;-61
2023/03/04 11:06:15;;;;;;;;;;;8.10;99.90;;;;;;5038013;28;19916;-61
2023/03/04 11:08:41;;;;;;;;;;;7.90;99.90;;;;;;5048251;28;20275;-60
2023/03/04 11:11:20;;;;;;;;;;;7.80;99.90;;;;;;5040175;28;20326;-60
2023/03/04 11:13:51;;;;;;;;;;;7.80;99.90;;;;;;5045976;28;20322;-60
2023/03/04 11:16:23;;;;;;;;;;;7.70;99.90;;;;;;5042131;28;20279;-61
2023/03/04 11:18:53;;;;;;;;;;;7.60;99.90;;;;;;5049294;28;19964;-61
2023/03/04 11:21:23;;;;;;;;;;;7.50;99.90;;;;;;5046717;28;19996;-61
2023/03/04 11:23:54;;;;;;;;;;;7.60;99.90;;;;;;5049024;28;19946;-60
2023/03/04 11:26:39;;;;;;;;;;;7.60;99.90;;;;;;5035205;28;19913;-61
2023/03/04 11:29:14;;;;;;;;;;;7.80;99.90;;;;;;5038949;28;19974;-61
2023/03/04 11:31:48;;;;;;;;;;;7.90;99.90;;;;;;5043831;28;20387;-61
2023/03/04 11:34:22;;;;;;;;;;;8.30;99.90;;;;;;5040848;28;19999;-61
2023/03/04 11:37:11;;;;;;;;;;;8.50;99.90;;;;;;5049069;28;19913;-61
2023/03/04 11:39:56;;;;;;;;;;;8.60;99.90;;;;;;5043256;28;20024;-61
2023/03/04 11:42:28;;;;;;;;;;;8.80;99.90;;;;;;5048824;28;19913;-61
2023/03/04 11:44:54;;;;;;;;;;;9.20;99.90;;;;;;5046359;28;19939;-61
2023/03/04 11:47:19;;;;;;;;;;;9.40;99.90;;;;;;5052535;28;19916;-61
2023/03/04 11:49:48;;;;;;;;;;;9.80;99.90;;;;;;5050061;28;19917;-61
2023/03/04 11:52:32;;;;;;;;;;;10.20;99.90;;;;;;5046835;28;19920;-61
2023/03/04 11:55:06;;;;;;;;;;;10.10;99.90;;;;;;5047082;28;19913;-62
2023/03/04 11:57:51;;;;;;;;;;;10.10;99.90;;;;;;5049645;28;19929;-63
2023/03/04 12:00:34;;;;;;;;;;;9.90;99.90;;;;;;5035000;28;19956;-60
2023/03/04 12:03:02;;;;;;;;;;;9.60;99.90;;;;;;5048766;28;19913;-60
2023/03/04 12:05:47;;;;;;;;;;;9.40;99.90;;;;;;5044976;28;19952;-61
2023/03/04 12:08:21;;;;;;;;;;;9.20;99.90;;;;;;5046540;28;19924;-61
2023/03/04 12:10:46;;;;;;;;;;;9.10;99.90;;;;;;5044126;28;20012;-61
2023/03/04 12:13:33;;;;;;;;;;;9.00;99.90;;;;;;5051493;28;19936;-61
2023/03/04 12:16:10;;;;;;;;;;;8.80;99.90;;;;;;5050709;28;19919;-60
2023/03/04 12:18:38;;;;;;;;;;;8.70;99.90;;;;;;5049638;28;19929;-60
2023/03/04 12:21:22;;;;;;;;;;;8.60;99.90;;;;;;5049438;28;19958;-61
2023/03/04 12:23:59;;;;;;;;;;;8.50;99.90;;;;;;5046651;28;19928;-62
2023/03/04 12:26:37;;;;;;;;;;;8.50;99.90;;;;;;5036197;28;20000;-61
2023/03/04 12:29:08;;;;;;;;;;;8.50;99.90;;;;;;5044674;28;19912;-63
2023/03/04 12:31:36;;;;;;;;;;;8.50;99.90;;;;;;5042756;28;19979;-62
2023/03/04 12:34:20;;;;;;;;;;;8.50;99.90;;;;;;5049635;28;19958;-60
2023/03/04 12:36:45;;;;;;;;;;;8.40;99.90;;;;;;5050049;28;19924;-60
2023/03/04 12:39:23;;;;;;;;;;;8.40;99.90;;;;;;5049863;28;19928;-61
2023/03/04 12:41:58;;;;;;;;;;;8.40;99.90;;;;;;5044799;28;20003;-61
2023/03/04 12:44:23;;;;;;;;;;;8.40;99.90;;;;;;5045834;28;19913;-61
2023/03/04 12:47:10;;;;;;;;;;;8.50;99.90;;;;;;5051925;28;19923;-62
2023/03/04 12:49:38;;;;;;;;;;;8.50;99.90;;;;;;5047195;28;19925;-61
2023/03/04 12:52:04;;;;;;;;;;;8.60;99.90;;;;;;5041900;28;20000;-61
2023/03/04 12:54:44;;;;;;;;;;;8.70;99.90;;;;;;5051025;28;20011;-61
2023/03/04 12:57:12;;;;;;;;;;;8.70;99.90;;;;;;5050157;28;19974;-61
2023/03/04 12:59:56;;;;;;;;;;;8.60;99.90;;;;;;5051110;28;19935;-61
2023/03/04 13:02:34;;;;;;;;;;;8.60;99.90;;;;;;5051141;28;20019;-62
2023/03/04 13:05:23;;;;;;;;;;;8.60;99.90;;;;;;5049138;28;20020;-61
2023/03/04 13:07:48;;;;;;;;;;;8.50;99.90;;;;;;5048134;28;19919;-62
2023/03/04 13:10:18;;;;;;;;;;;8.40;99.90;;;;;;5049775;28;19913;-60
2023/03/04 13:12:48;;;;;;;;;;;8.50;99.90;;;;;;5051225;28;20391;-60
2023/03/04 13:15:34;;;;;;;;;;;8.60;99.90;;;;;;5049204;28;19913;-60
2023/03/04 13:18:22;;;;;;;;;;;8.60;99.90;;;;;;5045170;28;19958;-60
2023/03/04 13:21:04;;;;;;;;;;;8.60;99.90;;;;;;5050770;28;19932;-60
2023/03/04 13:23:30;;;;;;;;;;;8.70;99.90;;;;;;5046024;28;19939;-61
2023/03/04 13:25:56;;;;;;;;;;;8.60;99.90;;;;;;5049377;28;19921;-60
2023/03/04 13:28:23;;;;;;;;;;;8.70;99.90;;;;;;5049384;28;19997;-61
2023/03/04 13:30:54;;;;;;;;;;;8.70;99.90;;;;;;5052118;28;19917;-60
2023/03/04 13:33:20;;;;;;;;;;;8.70;99.90;;;;;;5045370;28;19919;-60
2023/03/04 13:35:48;;;;;;;;;;;8.70;99.90;;;;;;5048892;28;20003;-62
2023/03/04 13:38:21;;;;;;;;;;;8.80;99.90;;;;;;5035602;28;19975;-60
2023/03/04 13:40:59;;;;;;;;;;;8.70;99.90;;;;;;5046584;28;19919;-61
2023/03/04 13:43:25;;;;;;;;;;;8.80;99.90;;;;;;5045211;28;19916;-61
2023/03/04 13:45:51;;;;;;;;;;;8.70;99.90;;;;;;5046239;28;20038;-61
2023/03/04 13:48:23;;;;;;;;;;;8.60;99.90;;;;;;5048521;28;19935;-62
2023/03/04 13:50:50;;;;;;;;;;;8.50;99.90;;;;;;5048055;28;19920;-62
2023/03/04 13:53:22;;;;;;;;;;;8.60;99.90;;;;;;5047596;28;20399;-62
2023/03/04 13:56:03;;;;;;;;;;;8.60;99.90;;;;;;5046643;28;19913;-61
2023/03/04 13:58:28;;;;;;;;;;;8.60;99.90;;;;;;5048932;28;19920;-61
2023/03/04 14:00:54;;;;;;;;;;;8.60;99.90;;;;;;5048261;28;19912;-61
2023/03/04 14:03:22;;;;;;;;;;;8.70;99.90;;;;;;5043476;28;20331;-62
2023/03/04 14:06:07;;;;;;;;;;;8.80;99.90;;;;;;5049761;28;19935;-61
2023/03/04 14:08:32;;;;;;;;;;;8.70;99.90;;;;;;5043876;28;20430;-61
2023/03/04 14:10:58;;;;;;;;;;;8.60;99.90;;;;;;5045898;28;19920;-62
2023/03/04 14:13:24;;;;;;;;;;;8.50;99.90;;;;;;5042847;28;19913;-60
2023/03/04 14:15:57;;;;;;;;;;;8.50;99.90;;;;;;5045120;28;19990;-61
2023/03/04 14:18:23;;;;;;;;;;;8.40;99.90;;;;;;5041861;28;19913;-60
2023/03/04 14:20:49;;;;;;;;;;;8.30;99.90;;;;;;5049315;28;19923;-61
2023/03/04 14:23:23;;;;;;;;;;;8.40;99.90;;;;;;5044577;28;19913;-61
2023/03/04 14:25:48;;;;;;;;;;;8.40;99.90;;;;;;5048384;28;19948;-61
2023/03/04 14:28:18;;;;;;;;;;;8.30;99.90;;;;;;5044093;28;19975;-60
2023/03/04 14:30:51;;;;;;;;;;;8.40;99.90;;;;;;5047684;28;20011;-60
2023/03/04 14:33:18;;;;;;;;;;;8.40;99.90;;;;;;5046850;28;19913;-60
2023/03/04 14:35:48;;;;;;;;;;;8.30;99.90;;;;;;5045666;28;19920;-60